sensor_id;sensor_type;location;lat;lon;timestamp;temperature;humidity
16182;DHT22;8197;51.664;7.114;2023-11-21T00:01:46;12.10;85.10
16182;DHT22;8197;51.664;7.114;2023-11-21T00:06:50;12.20;84.40
16182;DHT22;8197;51.664;7.114;2023-11-21T00:11:53;12.80;83.90
16182;DHT22;8197;51.664;7.114;2023-11-21T00:16:56;12.90;81.40
16182;DHT22;8197;51.664;7.114;2023-11-21T00:22:00;12.90;80.40
16182;DHT22;8197;51.664;7.114;2023-11-21T00:27:03;12.70;83.20
16182;DHT22;8197;51.664;7.114;2023-11-21T00:32:07;12.90;82.30
16182;DHT22;8197;51.664;7.114;2023-11-21T00:37:12;12.80;80.30
16182;DHT22;8197;51.664;7.114;2023-11-21T00:42:15;13.00;80.30
16182;DHT22;8197;51.664;7.114;2023-11-21T00:47:17;12.90;81.20
16182;DHT22;8197;51.664;7.114;2023-11-21T00:52:22;12.60;81.10
16182;DHT22;8197;51.664;7.114;2023-11-21T00:57:25;12.40;81.60
16182;DHT22;8197;51.664;7.114;2023-11-21T01:02:28;12.30;82.00
16182;DHT22;8197;51.664;7.114;2023-11-21T01:07:32;12.10;83.10
16182;DHT22;8197;51.664;7.114;2023-11-21T01:12:35;12.00;83.50
16182;DHT22;8197;51.664;7.114;2023-11-21T01:17:38;12.00;83.60
16182;DHT22;8197;51.664;7.114;2023-11-21T01:22:44;11.90;83.90
16182;DHT22;8197;51.664;7.114;2023-11-21T01:27:47;11.90;85.50
16182;DHT22;8197;51.664;7.114;2023-11-21T01:32:50;12.50;85.40
16182;DHT22;8197;51.664;7.114;2023-11-21T01:37:54;12.70;79.40
16182;DHT22;8197;51.664;7.114;2023-11-21T01:42:57;12.50;79.20
16182;DHT22;8197;51.664;7.114;2023-11-21T01:48:00;12.20;80.30
16182;DHT22;8197;51.664;7.114;2023-11-21T01:53:05;12.00;81.20
16182;DHT22;8197;51.664;7.114;2023-11-21T01:58:09;11.80;81.30
16182;DHT22;8197;51.664;7.114;2023-11-21T02:03:14;12.00;85.00
16182;DHT22;8197;51.664;7.114;2023-11-21T02:08:18;11.90;80.10
16182;DHT22;8197;51.664;7.114;2023-11-21T02:13:21;11.70;79.70
16182;DHT22;8197;51.664;7.114;2023-11-21T02:18:24;11.50;80.50
16182;DHT22;8197;51.664;7.114;2023-11-21T02:23:28;11.40;80.70
16182;DHT22;8197;51.664;7.114;2023-11-21T02:28:31;11.30;85.20
16182;DHT22;8197;51.664;7.114;2023-11-21T02:33:35;11.60;79.40
16182;DHT22;8197;51.664;7.114;2023-11-21T02:38:39;11.80;82.50
16182;DHT22;8197;51.664;7.114;2023-11-21T02:43:42;11.70;78.70
16182;DHT22;8197;51.664;7.114;2023-11-21T02:48:45;11.60;79.30
16182;DHT22;8197;51.664;7.114;2023-11-21T02:53:49;11.40;83.90
16182;DHT22;8197;51.664;7.114;2023-11-21T02:58:52;11.70;85.60
16182;DHT22;8197;51.664;7.114;2023-11-21T03:03:55;11.90;84.30
16182;DHT22;8197;51.664;7.114;2023-11-21T03:09:00;11.70;80.00
16182;DHT22;8197;51.664;7.114;2023-11-21T03:14:02;11.40;79.90
16182;DHT22;8197;51.664;7.114;2023-11-21T03:19:06;11.30;80.90
16182;DHT22;8197;51.664;7.114;2023-11-21T03:24:11;11.30;81.20
16182;DHT22;8197;51.664;7.114;2023-11-21T03:29:14;11.40;85.30
16182;DHT22;8197;51.664;7.114;2023-11-21T03:34:22;11.40;80.10
16182;DHT22;8197;51.664;7.114;2023-11-21T03:39:27;11.40;80.80
16182;DHT22;8197;51.664;7.114;2023-11-21T03:44:31;11.50;80.00
16182;DHT22;8197;51.664;7.114;2023-11-21T03:49:34;11.50;80.60
16182;DHT22;8197;51.664;7.114;2023-11-21T03:54:38;11.60;84.50
16182;DHT22;8197;51.664;7.114;2023-11-21T03:59:41;11.70;82.80
16182;DHT22;8197;51.664;7.114;2023-11-21T04:04:44;11.50;79.90
16182;DHT22;8197;51.664;7.114;2023-11-21T04:09:49;11.30;81.60
16182;DHT22;8197;51.664;7.114;2023-11-21T04:14:51;11.20;82.80
16182;DHT22;8197;51.664;7.114;2023-11-21T04:19:56;11.20;83.00
16182;DHT22;8197;51.664;7.114;2023-11-21T04:25:01;11.20;83.10
16182;DHT22;8197;51.664;7.114;2023-11-21T04:30:05;11.20;83.60
16182;DHT22;8197;51.664;7.114;2023-11-21T04:35:08;11.20;83.90
16182;DHT22;8197;51.664;7.114;2023-11-21T04:40:13;11.30;84.10
16182;DHT22;8197;51.664;7.114;2023-11-21T04:45:16;11.30;84.10
16182;DHT22;8197;51.664;7.114;2023-11-21T04:50:19;11.50;84.60
16182;DHT22;8197;51.664;7.114;2023-11-21T04:55:23;11.50;83.90
16182;DHT22;8197;51.664;7.114;2023-11-21T05:00:26;11.50;83.70
16182;DHT22;8197;51.664;7.114;2023-11-21T05:05:29;11.40;83.10
16182;DHT22;8197;51.664;7.114;2023-11-21T05:10:33;11.40;83.50
16182;DHT22;8197;51.664;7.114;2023-11-21T05:15:39;11.40;83.80
16182;DHT22;8197;51.664;7.114;2023-11-21T05:20:43;11.40;84.00
16182;DHT22;8197;51.664;7.114;2023-11-21T05:25:47;11.40;85.40
16182;DHT22;8197;51.664;7.114;2023-11-21T05:30:50;11.50;83.50
16182;DHT22;8197;51.664;7.114;2023-11-21T05:36:14;11.50;83.60
16182;DHT22;8197;51.664;7.114;2023-11-21T05:41:19;11.40;84.60
16182;DHT22;8197;51.664;7.114;2023-11-21T05:46:23;11.40;84.20
16182;DHT22;8197;51.664;7.114;2023-11-21T05:51:26;11.40;85.90
16182;DHT22;8197;51.664;7.114;2023-11-21T05:56:30;11.50;84.30
16182;DHT22;8197;51.664;7.114;2023-11-21T06:01:33;11.50;84.30
16182;DHT22;8197;51.664;7.114;2023-11-21T06:06:36;11.50;84.40
16182;DHT22;8197;51.664;7.114;2023-11-21T06:11:40;11.40;84.70
16182;DHT22;8197;51.664;7.114;2023-11-21T06:16:43;11.40;84.80
16182;DHT22;8197;51.664;7.114;2023-11-21T06:21:47;12.00;84.90
16182;DHT22;8197;51.664;7.114;2023-11-21T06:26:51;12.10;82.40
16182;DHT22;8197;51.664;7.114;2023-11-21T06:31:54;12.00;81.30
16182;DHT22;8197;51.664;7.114;2023-11-21T06:36:57;11.80;82.60
16182;DHT22;8197;51.664;7.114;2023-11-21T06:42:01;11.60;83.90
16182;DHT22;8197;51.664;7.114;2023-11-21T06:47:06;11.90;82.80
16182;DHT22;8197;51.664;7.114;2023-11-21T06:52:09;12.00;82.00
16182;DHT22;8197;51.664;7.114;2023-11-21T06:57:13;12.10;83.30
16182;DHT22;8197;51.664;7.114;2023-11-21T07:02:16;12.20;82.20
16182;DHT22;8197;51.664;7.114;2023-11-21T07:07:20;12.50;81.80
16182;DHT22;8197;51.664;7.114;2023-11-21T07:12:24;12.60;80.40
16182;DHT22;8197;51.664;7.114;2023-11-21T07:17:27;12.50;80.40
16182;DHT22;8197;51.664;7.114;2023-11-21T07:22:30;12.30;82.80
16182;DHT22;8197;51.664;7.114;2023-11-21T07:27:34;12.30;81.10
16182;DHT22;8197;51.664;7.114;2023-11-21T07:32:38;12.20;81.00
16182;DHT22;8197;51.664;7.114;2023-11-21T07:37:42;12.10;83.60
16182;DHT22;8197;51.664;7.114;2023-11-21T07:42:47;12.60;80.00
16182;DHT22;8197;51.664;7.114;2023-11-21T07:47:51;12.90;78.40
16182;DHT22;8197;51.664;7.114;2023-11-21T07:52:54;13.10;79.80
16182;DHT22;8197;51.664;7.114;2023-11-21T07:57:59;13.10;75.90
16182;DHT22;8197;51.664;7.114;2023-11-21T08:03:02;13.10;79.00
16182;DHT22;8197;51.664;7.114;2023-11-21T08:08:05;13.00;78.80
16182;DHT22;8197;51.664;7.114;2023-11-21T08:13:10;13.00;78.40
16182;DHT22;8197;51.664;7.114;2023-11-21T08:18:16;13.00;76.00
16182;DHT22;8197;51.664;7.114;2023-11-21T08:23:19;12.80;78.10
16182;DHT22;8197;51.664;7.114;2023-11-21T08:28:23;12.50;80.30
16182;DHT22;8197;51.664;7.114;2023-11-21T08:33:27;12.80;79.50
16182;DHT22;8197;51.664;7.114;2023-11-21T08:38:30;13.00;79.20
16182;DHT22;8197;51.664;7.114;2023-11-21T08:43:35;13.00;75.80
16182;DHT22;8197;51.664;7.114;2023-11-21T08:48:41;13.00;78.90
16182;DHT22;8197;51.664;7.114;2023-11-21T08:53:45;13.20;78.80
16182;DHT22;8197;51.664;7.114;2023-11-21T08:58:50;13.00;78.50
16182;DHT22;8197;51.664;7.114;2023-11-21T09:03:54;12.90;79.50
16182;DHT22;8197;51.664;7.114;2023-11-21T09:08:57;13.10;79.50
16182;DHT22;8197;51.664;7.114;2023-11-21T09:14:01;13.10;78.70
16182;DHT22;8197;51.664;7.114;2023-11-21T09:19:05;12.80;78.00
16182;DHT22;8197;51.664;7.114;2023-11-21T09:24:08;12.70;80.70
16182;DHT22;8197;51.664;7.114;2023-11-21T09:29:13;12.80;79.10
16182;DHT22;8197;51.664;7.114;2023-11-21T09:34:15;12.90;79.20
16182;DHT22;8197;51.664;7.114;2023-11-21T09:39:19;13.10;79.60
16182;DHT22;8197;51.664;7.114;2023-11-21T09:44:32;13.30;77.20
16182;DHT22;8197;51.664;7.114;2023-11-21T09:49:37;13.30;78.10
16182;DHT22;8197;51.664;7.114;2023-11-21T09:54:41;13.20;77.10
16182;DHT22;8197;51.664;7.114;2023-11-21T09:59:47;13.20;78.10
16182;DHT22;8197;51.664;7.114;2023-11-21T10:04:52;13.20;78.90
16182;DHT22;8197;51.664;7.114;2023-11-21T10:09:56;13.20;77.00
16182;DHT22;8197;51.664;7.114;2023-11-21T10:15:03;13.20;78.10
16182;DHT22;8197;51.664;7.114;2023-11-21T10:20:08;13.20;77.10
16182;DHT22;8197;51.664;7.114;2023-11-21T10:25:15;13.00;79.90
16182;DHT22;8197;51.664;7.114;2023-11-21T10:30:20;13.20;78.10
16182;DHT22;8197;51.664;7.114;2023-11-21T10:35:23;13.30;79.10
16182;DHT22;8197;51.664;7.114;2023-11-21T10:40:27;13.30;77.50
16182;DHT22;8197;51.664;7.114;2023-11-21T10:45:32;13.10;79.90
16182;DHT22;8197;51.664;7.114;2023-11-21T10:50:36;13.20;79.60
16182;DHT22;8197;51.664;7.114;2023-11-21T10:55:39;13.20;80.00
16182;DHT22;8197;51.664;7.114;2023-11-21T11:00:44;13.30;78.30
16182;DHT22;8197;51.664;7.114;2023-11-21T11:05:47;13.30;79.30
16182;DHT22;8197;51.664;7.114;2023-11-21T11:10:55;13.40;77.70
16182;DHT22;8197;51.664;7.114;2023-11-21T11:16:01;13.00;80.40
16182;DHT22;8197;51.664;7.114;2023-11-21T11:21:11;13.10;81.20
16182;DHT22;8197;51.664;7.114;2023-11-21T11:26:30;12.90;81.30
16182;DHT22;8197;51.664;7.114;2023-11-21T11:31:45;12.90;82.60
16182;DHT22;8197;51.664;7.114;2023-11-21T11:36:58;12.50;83.30
16182;DHT22;8197;51.664;7.114;2023-11-21T11:42:07;12.40;83.80
16182;DHT22;8197;51.664;7.114;2023-11-21T11:47:14;12.20;85.10
16182;DHT22;8197;51.664;7.114;2023-11-21T11:52:37;12.50;85.20
16182;DHT22;8197;51.664;7.114;2023-11-21T11:57:42;12.70;82.60
16182;DHT22;8197;51.664;7.114;2023-11-21T12:02:48;12.90;82.80
16182;DHT22;8197;51.664;7.114;2023-11-21T12:07:52;13.10;81.70
16182;DHT22;8197;51.664;7.114;2023-11-21T12:12:57;13.20;81.90
16182;DHT22;8197;51.664;7.114;2023-11-21T12:18:02;13.20;81.10
16182;DHT22;8197;51.664;7.114;2023-11-21T12:23:05;13.10;82.00
16182;DHT22;8197;51.664;7.114;2023-11-21T12:28:10;13.30;81.70
16182;DHT22;8197;51.664;7.114;2023-11-21T12:33:15;13.40;79.60
16182;DHT22;8197;51.664;7.114;2023-11-21T12:38:19;13.30;81.60
16182;DHT22;8197;51.664;7.114;2023-11-21T12:43:22;13.40;80.50
16182;DHT22;8197;51.664;7.114;2023-11-21T12:48:27;13.40;80.70
16182;DHT22;8197;51.664;7.114;2023-11-21T12:53:31;13.50;80.40
16182;DHT22;8197;51.664;7.114;2023-11-21T12:58:39;13.60;80.20
16182;DHT22;8197;51.664;7.114;2023-11-21T13:03:46;13.50;79.50
16182;DHT22;8197;51.664;7.114;2023-11-21T13:08:50;13.50;80.70
16182;DHT22;8197;51.664;7.114;2023-11-21T13:13:52;13.60;79.80
16182;DHT22;8197;51.664;7.114;2023-11-21T13:18:57;13.50;79.50
16182;DHT22;8197;51.664;7.114;2023-11-21T13:24:00;13.10;81.20
16182;DHT22;8197;51.664;7.114;2023-11-21T13:29:03;12.80;83.80
16182;DHT22;8197;51.664;7.114;2023-11-21T13:34:08;12.60;83.40
16182;DHT22;8197;51.664;7.114;2023-11-21T13:39:11;12.40;85.40
16182;DHT22;8197;51.664;7.114;2023-11-21T13:44:17;12.50;84.50
16182;DHT22;8197;51.664;7.114;2023-11-21T13:49:30;11.80;87.30
16182;DHT22;8197;51.664;7.114;2023-11-21T13:54:37;11.80;86.90
16182;DHT22;8197;51.664;7.114;2023-11-21T13:59:40;12.00;87.60
16182;DHT22;8197;51.664;7.114;2023-11-21T14:04:47;12.20;85.20
16182;DHT22;8197;51.664;7.114;2023-11-21T14:09:56;12.10;85.00
16182;DHT22;8197;51.664;7.114;2023-11-21T14:15:01;12.10;84.90
16182;DHT22;8197;51.664;7.114;2023-11-21T14:20:07;12.10;84.40
16182;DHT22;8197;51.664;7.114;2023-11-21T14:25:17;12.30;82.70
16182;DHT22;8197;51.664;7.114;2023-11-21T14:30:20;12.10;83.00
16182;DHT22;8197;51.664;7.114;2023-11-21T14:35:25;12.30;83.30
16182;DHT22;8197;51.664;7.114;2023-11-21T14:40:29;12.40;83.40
16182;DHT22;8197;51.664;7.114;2023-11-21T14:45:34;12.60;81.90
16182;DHT22;8197;51.664;7.114;2023-11-21T14:50:39;12.40;81.00
16182;DHT22;8197;51.664;7.114;2023-11-21T14:55:55;11.90;82.50
16182;DHT22;8197;51.664;7.114;2023-11-21T15:00:59;11.80;82.60
16182;DHT22;8197;51.664;7.114;2023-11-21T15:06:05;11.50;83.10
16182;DHT22;8197;51.664;7.114;2023-11-21T15:11:20;11.70;83.30
16182;DHT22;8197;51.664;7.114;2023-11-21T15:16:31;11.90;84.40
16182;DHT22;8197;51.664;7.114;2023-11-21T15:21:35;11.70;81.90
16182;DHT22;8197;51.664;7.114;2023-11-21T15:26:38;11.30;83.10
16182;DHT22;8197;51.664;7.114;2023-11-21T15:31:41;11.30;85.20
16182;DHT22;8197;51.664;7.114;2023-11-21T15:36:51;11.50;82.60
16182;DHT22;8197;51.664;7.114;2023-11-21T15:41:56;11.50;81.40
16182;DHT22;8197;51.664;7.114;2023-11-21T15:46:59;11.30;82.00
16182;DHT22;8197;51.664;7.114;2023-11-21T15:52:04;11.30;80.00
16182;DHT22;8197;51.664;7.114;2023-11-21T15:57:11;11.00;80.90
16182;DHT22;8197;51.664;7.114;2023-11-21T16:02:16;11.00;82.10
16182;DHT22;8197;51.664;7.114;2023-11-21T16:07:20;10.80;80.70
16182;DHT22;8197;51.664;7.114;2023-11-21T16:12:23;10.90;79.80
16182;DHT22;8197;51.664;7.114;2023-11-21T16:17:26;10.80;79.80
16182;DHT22;8197;51.664;7.114;2023-11-21T16:22:30;10.60;80.50
16182;DHT22;8197;51.664;7.114;2023-11-21T16:27:36;10.60;80.20
16182;DHT22;8197;51.664;7.114;2023-11-21T16:32:39;11.00;81.00
16182;DHT22;8197;51.664;7.114;2023-11-21T16:37:44;11.50;78.30
16182;DHT22;8197;51.664;7.114;2023-11-21T16:42:49;11.50;77.20
16182;DHT22;8197;51.664;7.114;2023-11-21T16:47:52;10.70;79.70
16182;DHT22;8197;51.664;7.114;2023-11-21T16:52:56;10.60;79.00
16182;DHT22;8197;51.664;7.114;2023-11-21T16:57:59;10.70;79.90
16182;DHT22;8197;51.664;7.114;2023-11-21T17:03:02;10.80;79.90
16182;DHT22;8197;51.664;7.114;2023-11-21T17:08:07;11.00;79.40
16182;DHT22;8197;51.664;7.114;2023-11-21T17:13:12;10.80;77.20
16182;DHT22;8197;51.664;7.114;2023-11-21T17:18:15;10.80;75.70
16182;DHT22;8197;51.664;7.114;2023-11-21T17:23:19;10.50;76.30
16182;DHT22;8197;51.664;7.114;2023-11-21T17:28:22;10.30;78.70
16182;DHT22;8197;51.664;7.114;2023-11-21T17:33:25;10.50;77.90
16182;DHT22;8197;51.664;7.114;2023-11-21T17:38:29;10.60;77.20
16182;DHT22;8197;51.664;7.114;2023-11-21T17:43:33;10.60;75.90
16182;DHT22;8197;51.664;7.114;2023-11-21T17:48:41;10.30;75.60
16182;DHT22;8197;51.664;7.114;2023-11-21T17:53:45;10.60;76.10
16182;DHT22;8197;51.664;7.114;2023-11-21T17:58:50;10.70;75.70
16182;DHT22;8197;51.664;7.114;2023-11-21T18:03:56;10.80;75.80
16182;DHT22;8197;51.664;7.114;2023-11-21T18:09:01;11.20;73.90
16182;DHT22;8197;51.664;7.114;2023-11-21T18:14:05;11.00;75.20
16182;DHT22;8197;51.664;7.114;2023-11-21T18:19:12;10.90;74.40
16182;DHT22;8197;51.664;7.114;2023-11-21T18:24:16;11.00;76.70
16182;DHT22;8197;51.664;7.114;2023-11-21T18:29:19;10.80;75.60
16182;DHT22;8197;51.664;7.114;2023-11-21T18:34:22;10.90;75.80
16182;DHT22;8197;51.664;7.114;2023-11-21T18:39:27;11.20;75.40
16182;DHT22;8197;51.664;7.114;2023-11-21T18:44:30;11.10;74.80
16182;DHT22;8197;51.664;7.114;2023-11-21T18:49:45;11.00;74.20
16182;DHT22;8197;51.664;7.114;2023-11-21T18:54:49;10.90;73.90
16182;DHT22;8197;51.664;7.114;2023-11-21T18:59:53;10.80;74.90
16182;DHT22;8197;51.664;7.114;2023-11-21T19:04:56;10.80;74.70
16182;DHT22;8197;51.664;7.114;2023-11-21T19:10:02;10.90;76.70
16182;DHT22;8197;51.664;7.114;2023-11-21T19:15:07;11.10;74.80
16182;DHT22;8197;51.664;7.114;2023-11-21T19:20:11;11.10;74.10
16182;DHT22;8197;51.664;7.114;2023-11-21T19:25:15;11.10;75.10
16182;DHT22;8197;51.664;7.114;2023-11-21T19:30:20;10.90;74.50
16182;DHT22;8197;51.664;7.114;2023-11-21T19:35:23;10.90;74.20
16182;DHT22;8197;51.664;7.114;2023-11-21T19:40:27;11.00;76.00
16182;DHT22;8197;51.664;7.114;2023-11-21T19:45:30;10.80;74.80
16182;DHT22;8197;51.664;7.114;2023-11-21T19:50:33;10.60;76.10
16182;DHT22;8197;51.664;7.114;2023-11-21T19:55:38;10.80;76.10
16182;DHT22;8197;51.664;7.114;2023-11-21T20:00:41;10.90;74.80
16182;DHT22;8197;51.664;7.114;2023-11-21T20:05:45;10.60;74.50
16182;DHT22;8197;51.664;7.114;2023-11-21T20:10:49;10.40;75.70
16182;DHT22;8197;51.664;7.114;2023-11-21T20:15:52;9.80;78.90
16182;DHT22;8197;51.664;7.114;2023-11-21T20:20:55;10.00;78.40
16182;DHT22;8197;51.664;7.114;2023-11-21T20:25:59;10.20;78.40
16182;DHT22;8197;51.664;7.114;2023-11-21T20:31:03;10.10;79.60
16182;DHT22;8197;51.664;7.114;2023-11-21T20:36:07;10.30;79.00
16182;DHT22;8197;51.664;7.114;2023-11-21T20:41:11;10.60;76.90
16182;DHT22;8197;51.664;7.114;2023-11-21T20:46:16;10.70;76.90
16182;DHT22;8197;51.664;7.114;2023-11-21T20:51:20;10.70;78.70
16182;DHT22;8197;51.664;7.114;2023-11-21T20:56:25;10.60;76.50
16182;DHT22;8197;51.664;7.114;2023-11-21T21:01:27;10.30;78.10
16182;DHT22;8197;51.664;7.114;2023-11-21T21:06:31;10.00;79.50
16182;DHT22;8197;51.664;7.114;2023-11-21T21:11:35;9.80;79.30
16182;DHT22;8197;51.664;7.114;2023-11-21T21:16:39;9.80;79.40
16182;DHT22;8197;51.664;7.114;2023-11-21T21:21:44;9.80;80.40
16182;DHT22;8197;51.664;7.114;2023-11-21T21:26:48;10.00;80.20
16182;DHT22;8197;51.664;7.114;2023-11-21T21:31:51;10.00;79.00
16182;DHT22;8197;51.664;7.114;2023-11-21T21:36:54;10.20;79.70
16182;DHT22;8197;51.664;7.114;2023-11-21T21:41:59;10.50;79.90
16182;DHT22;8197;51.664;7.114;2023-11-21T21:47:02;10.80;76.50
16182;DHT22;8197;51.664;7.114;2023-11-21T21:52:05;11.00;79.30
16182;DHT22;8197;51.664;7.114;2023-11-21T21:57:09;11.40;77.10
16182;DHT22;8197;51.664;7.114;2023-11-21T22:02:12;11.80;74.90
16182;DHT22;8197;51.664;7.114;2023-11-21T22:07:15;12.00;73.30
16182;DHT22;8197;51.664;7.114;2023-11-21T22:12:20;11.60;73.60
16182;DHT22;8197;51.664;7.114;2023-11-21T22:17:23;11.30;73.10
16182;DHT22;8197;51.664;7.114;2023-11-21T22:22:26;10.90;77.20
16182;DHT22;8197;51.664;7.114;2023-11-21T22:27:30;10.80;74.80
16182;DHT22;8197;51.664;7.114;2023-11-21T22:32:33;10.40;77.60
16182;DHT22;8197;51.664;7.114;2023-11-21T22:37:36;10.40;76.80
16182;DHT22;8197;51.664;7.114;2023-11-21T22:42:41;10.10;77.70
16182;DHT22;8197;51.664;7.114;2023-11-21T22:47:44;9.90;78.20
16182;DHT22;8197;51.664;7.114;2023-11-21T22:52:47;10.00;79.00
16182;DHT22;8197;51.664;7.114;2023-11-21T22:57:52;10.20;76.10
16182;DHT22;8197;51.664;7.114;2023-11-21T23:02:56;10.10;76.90
16182;DHT22;8197;51.664;7.114;2023-11-21T23:08:00;10.20;81.10
16182;DHT22;8197;51.664;7.114;2023-11-21T23:13:05;10.70;78.50
16182;DHT22;8197;51.664;7.114;2023-11-21T23:18:09;11.50;75.70
16182;DHT22;8197;51.664;7.114;2023-11-21T23:23:13;11.80;72.70
16182;DHT22;8197;51.664;7.114;2023-11-21T23:28:17;12.10;72.40
16182;DHT22;8197;51.664;7.114;2023-11-21T23:33:21;11.90;70.90
16182;DHT22;8197;51.664;7.114;2023-11-21T23:38:26;11.60;71.20
16182;DHT22;8197;51.664;7.114;2023-11-21T23:43:31;11.50;73.60
16182;DHT22;8197;51.664;7.114;2023-11-21T23:48:34;11.30;69.90
16182;DHT22;8197;51.664;7.114;2023-11-21T23:53:37;11.10;74.70
16182;DHT22;8197;51.664;7.114;2023-11-21T23:58:41;11.50;74.00
